Time;durP1;ratioP1;P1;durP2;ratioP2;P2;SDS_P1;SDS_P2;PMS_P1;PMS_P2;Temp;Humidity;BMP_temperature;BMP_pressure;BME280_temperature;BME280_humidity;BME280_pressure;Samples;Min_cycle;Max_cycle;Signal;HPM_P1;HPM_P2
2022/04/08 00:02:07;;;;;;;;;;;;;;;;;;5074577;28;19920;-28
2022/04/08 00:04:33;;;;;;;;;;;;;;;;;;5074092;28;19966;-28
2022/04/08 00:06:59;;;;;;;;;;;;;;;;;;5074575;28;19916;-28
2022/04/08 00:09:25;;;;;;;;;;;;;;;;;;5074774;28;19928;-28
2022/04/08 00:11:51;;;;;;;;;;;;;;;;;;5074817;28;19925;-28
2022/04/08 00:14:20;;;;;;;;;;;;;;;;;;5078784;28;20009;-28
2022/04/08 00:16:46;;;;;;;;;;;;;;;;;;5078494;28;19924;-27
2022/04/08 00:19:12;;;;;;;;;;;;;;;;;;5078408;28;20232;-28
2022/04/08 00:21:38;;;;;;;;;;;;;;;;;;5078114;28;19935;-28
2022/04/08 00:24:05;;;;;;;;;;;;;;;;;;5078011;28;20361;-28
2022/04/08 00:26:31;;;;;;;;;;;;;;;;;;5077938;28;20412;-28
2022/04/08 00:28:57;;;;;;;;;;;;;;;;;;5078188;28;19908;-28
2022/04/08 00:31:23;;;;;;;;;;;;;;;;;;5077945;28;19912;-28
2022/04/08 00:33:49;;;;;;;;;;;;;;;;;;5077857;28;19913;-28
2022/04/08 00:36:15;;;;;;;;;;;;;;;;;;5077818;28;19923;-28
2022/04/08 00:38:41;;;;;;;;;;;;;;;;;;5077823;28;20250;-28
2022/04/08 00:41:07;;;;;;;;;;;;;;;;;;5077765;28;20258;-28
2022/04/08 00:43:33;;;;;;;;;;;;;;;;;;5077686;28;19919;-28
2022/04/08 00:45:59;;;;;;;;;;;;;;;;;;5060087;28;20369;-28
2022/04/08 00:48:26;;;;;;;;;;;;;;;;;;5077924;28;19920;-28
2022/04/08 00:50:52;;;;;;;;;;;;;;;;;;5077447;28;19918;-28
2022/04/08 00:53:18;;;;;;;;;;;;;;;;;;5077796;28;19912;-28
2022/04/08 00:55:44;;;;;;;;;;;;;;;;;;5077482;28;19919;-28
2022/04/08 00:58:11;;;;;;;;;;;;;;;;;;5077476;28;19912;-28
2022/04/08 01:00:37;;;;;;;;;;;;;;;;;;5077690;28;19916;-28
2022/04/08 01:03:03;;;;;;;;;;;;;;;;;;5077071;28;19913;-28
2022/04/08 01:05:29;;;;;;;;;;;;;;;;;;5077649;28;19919;-28
2022/04/08 01:07:55;;;;;;;;;;;;;;;;;;5077569;28;19913;-28
2022/04/08 01:10:21;;;;;;;;;;;;;;;;;;5077513;28;20335;-28
2022/04/08 01:12:49;;;;;;;;;;;;;;;;;;5077143;28;19919;-28
2022/04/08 01:15:15;;;;;;;;;;;;;;;;;;5077200;28;19981;-28
2022/04/08 01:17:41;;;;;;;;;;;;;;;;;;5077058;28;19912;-28
2022/04/08 01:20:07;;;;;;;;;;;;;;;;;;5077370;28;20007;-28
2022/04/08 01:22:33;;;;;;;;;;;;;;;;;;5076959;28;20339;-28
2022/04/08 01:24:59;;;;;;;;;;;;;;;;;;5076717;28;19919;-28
2022/04/08 01:27:25;;;;;;;;;;;;;;;;;;5076926;28;19908;-28
2022/04/08 01:29:51;;;;;;;;;;;;;;;;;;5076802;28;19917;-28
2022/04/08 01:32:17;;;;;;;;;;;;;;;;;;5077034;28;19912;-28
2022/04/08 01:34:44;;;;;;;;;;;;;;;;;;5076720;28;19913;-28
2022/04/08 01:37:10;;;;;;;;;;;;;;;;;;5076952;28;20232;-28
2022/04/08 01:39:37;;;;;;;;;;;;;;;;;;5076669;28;19909;-28
2022/04/08 01:42:04;;;;;;;;;;;;;;;;;;5076482;28;19920;-28
2022/04/08 01:44:30;;;;;;;;;;;;;;;;;;5076554;28;20332;-28
2022/04/08 01:46:56;;;;;;;;;;;;;;;;;;5076500;28;19912;-28
2022/04/08 01:49:22;;;;;;;;;;;;;;;;;;5076682;28;19923;-28
2022/04/08 01:51:48;;;;;;;;;;;;;;;;;;5076292;28;19913;-28
2022/04/08 01:54:14;;;;;;;;;;;;;;;;;;5076361;28;20321;-27
2022/04/08 01:56:40;;;;;;;;;;;;;;;;;;5076304;28;20417;-28
2022/04/08 01:59:06;;;;;;;;;;;;;;;;;;5076505;28;19908;-28
2022/04/08 02:01:32;;;;;;;;;;;;;;;;;;5076169;28;19923;-28
2022/04/08 02:03:58;;;;;;;;;;;;;;;;;;5076226;28;19920;-28
2022/04/08 02:06:24;;;;;;;;;;;;;;;;;;5076143;28;19909;-28
2022/04/08 02:08:50;;;;;;;;;;;;;;;;;;5075976;28;20259;-28
2022/04/08 02:11:16;;;;;;;;;;;;;;;;;;5075945;28;19916;-28
2022/04/08 02:13:42;;;;;;;;;;;;;;;;;;5075947;28;19913;-28
2022/04/08 02:16:09;;;;;;;;;;;;;;;;;;5076181;28;19984;-27
2022/04/08 02:18:35;;;;;;;;;;;;;;;;;;5075897;28;19916;-28
2022/04/08 02:21:01;;;;;;;;;;;;;;;;;;5076102;28;19912;-28
2022/04/08 02:23:27;;;;;;;;;;;;;;;;;;5075727;28;20262;-28
2022/04/08 02:25:53;;;;;;;;;;;;;;;;;;5076024;28;19995;-28
2022/04/08 02:28:19;;;;;;;;;;;;;;;;;;5075991;28;19982;-28
2022/04/08 02:30:45;;;;;;;;;;;;;;;;;;5075834;28;19916;-28
2022/04/08 02:33:12;;;;;;;;;;;;;;;;;;5075820;28;20255;-28
2022/04/08 02:35:38;;;;;;;;;;;;;;;;;;5075015;28;19946;-27
2022/04/08 02:38:04;;;;;;;;;;;;;;;;;;5076192;28;19908;-28
2022/04/08 02:40:30;;;;;;;;;;;;;;;;;;5075524;28;20374;-28
2022/04/08 02:42:56;;;;;;;;;;;;;;;;;;5075685;28;19919;-28
2022/04/08 02:45:22;;;;;;;;;;;;;;;;;;5075514;28;19913;-28
2022/04/08 02:47:48;;;;;;;;;;;;;;;;;;5075465;28;19912;-28
2022/04/08 02:50:14;;;;;;;;;;;;;;;;;;5075329;28;19916;-28
2022/04/08 02:52:40;;;;;;;;;;;;;;;;;;5075341;28;19991;-28
2022/04/08 02:55:06;;;;;;;;;;;;;;;;;;5075598;28;20228;-28
2022/04/08 02:57:32;;;;;;;;;;;;;;;;;;5075307;28;19930;-28
2022/04/08 02:59:58;;;;;;;;;;;;;;;;;;5075599;28;19936;-28
2022/04/08 03:02:24;;;;;;;;;;;;;;;;;;5075169;28;19924;-28
2022/04/08 03:04:51;;;;;;;;;;;;;;;;;;5075059;28;20355;-28
2022/04/08 03:07:17;;;;;;;;;;;;;;;;;;5075121;28;19916;-28
2022/04/08 03:09:43;;;;;;;;;;;;;;;;;;5075347;28;19965;-28
2022/04/08 03:12:09;;;;;;;;;;;;;;;;;;5075117;28;19912;-28
2022/04/08 03:14:35;;;;;;;;;;;;;;;;;;5075158;28;20377;-27
2022/04/08 03:17:01;;;;;;;;;;;;;;;;;;5075112;28;19920;-28
2022/04/08 03:19:27;;;;;;;;;;;;;;;;;;5075349;28;19912;-27
2022/04/08 03:21:54;;;;;;;;;;;;;;;;;;5075249;28;19966;-28
2022/04/08 03:24:20;;;;;;;;;;;;;;;;;;5075016;28;19916;-28
2022/04/08 03:26:48;;;;;;;;;;;;;;;;;;5075282;28;19970;-28
2022/04/08 03:29:13;;;;;;;;;;;;;;;;;;5075165;28;19912;-28
2022/04/08 03:31:40;;;;;;;;;;;;;;;;;;5075002;28;19935;-28
2022/04/08 03:34:06;;;;;;;;;;;;;;;;;;5075138;28;19991;-28
2022/04/08 03:36:31;;;;;;;;;;;;;;;;;;5074897;28;19919;-28
2022/04/08 03:38:57;;;;;;;;;;;;;;;;;;5074899;28;19909;-28
2022/04/08 03:41:23;;;;;;;;;;;;;;;;;;5074811;28;19916;-28
2022/04/08 03:43:49;;;;;;;;;;;;;;;;;;5074668;28;19917;-28
2022/04/08 03:46:16;;;;;;;;;;;;;;;;;;5076323;28;19912;-28
2022/04/08 03:48:43;;;;;;;;;;;;;;;;;;5078955;28;19912;-28
2022/04/08 03:51:09;;;;;;;;;;;;;;;;;;5078504;28;20021;-28
2022/04/08 03:53:35;;;;;;;;;;;;;;;;;;5060947;28;19912;-28
2022/04/08 03:56:02;;;;;;;;;;;;;;;;;;5078542;28;19962;-29
2022/04/08 03:58:28;;;;;;;;;;;;;;;;;;5078381;28;19916;-29
2022/04/08 04:00:54;;;;;;;;;;;;;;;;;;5078325;28;19917;-29
2022/04/08 04:03:20;;;;;;;;;;;;;;;;;;5078419;28;20310;-29
2022/04/08 04:05:46;;;;;;;;;;;;;;;;;;5078713;28;19920;-29
2022/04/08 04:08:18;;;;;;;;;;;;;;;;;;5078511;28;19920;-27
2022/04/08 04:10:44;;;;;;;;;;;;;;;;;;5078278;28;20007;-27
2022/04/08 04:13:10;;;;;;;;;;;;;;;;;;5077879;28;19912;-27
2022/04/08 04:15:36;;;;;;;;;;;;;;;;;;5077830;28;19962;-27
2022/04/08 04:18:02;;;;;;;;;;;;;;;;;;5078125;28;19948;-28
2022/04/08 04:20:28;;;;;;;;;;;;;;;;;;5077720;28;20343;-28
2022/04/08 04:22:54;;;;;;;;;;;;;;;;;;5077555;28;19908;-28
2022/04/08 04:25:20;;;;;;;;;;;;;;;;;;5077973;28;20342;-28
2022/04/08 04:27:46;;;;;;;;;;;;;;;;;;5077761;28;19918;-28
2022/04/08 04:30:12;;;;;;;;;;;;;;;;;;5078906;28;19920;-28
2022/04/08 04:32:38;;;;;;;;;;;;;;;;;;5077527;28;20304;-28
2022/04/08 04:35:06;;;;;;;;;;;;;;;;;;5077567;28;20331;-28
2022/04/08 04:37:32;;;;;;;;;;;;;;;;;;5077491;28;19920;-28
2022/04/08 04:39:58;;;;;;;;;;;;;;;;;;5077298;28;19913;-28
2022/04/08 04:42:26;;;;;;;;;;;;;;;;;;5077368;28;19908;-28
2022/04/08 04:44:52;;;;;;;;;;;;;;;;;;5077644;28;19923;-28
2022/04/08 04:47:18;;;;;;;;;;;;;;;;;;5077386;28;19920;-28
2022/04/08 04:49:44;;;;;;;;;;;;;;;;;;5077416;28;20003;-28
2022/04/08 04:52:10;;;;;;;;;;;;;;;;;;5077279;28;20003;-29
2022/04/08 04:54:37;;;;;;;;;;;;;;;;;;5078164;28;19912;-28
2022/04/08 04:57:03;;;;;;;;;;;;;;;;;;5077455;28;20340;-28
2022/04/08 04:59:29;;;;;;;;;;;;;;;;;;5076594;28;19920;-28
2022/04/08 05:01:55;;;;;;;;;;;;;;;;;;5077061;28;19912;-28
2022/04/08 05:04:21;;;;;;;;;;;;;;;;;;5076915;28;19923;-28
2022/04/08 05:06:47;;;;;;;;;;;;;;;;;;5077323;28;20389;-28
2022/04/08 05:09:13;;;;;;;;;;;;;;;;;;5077031;28;19909;-28
2022/04/08 05:11:39;;;;;;;;;;;;;;;;;;5077320;28;19916;-28
2022/04/08 05:14:05;;;;;;;;;;;;;;;;;;5077150;28;19909;-28
2022/04/08 05:16:31;;;;;;;;;;;;;;;;;;5076915;28;20343;-28
2022/04/08 05:18:57;;;;;;;;;;;;;;;;;;5076936;28;20274;-28
2022/04/08 05:21:22;;;;;;;;;;;;;;;;;;5077092;28;20003;-28
2022/04/08 05:23:48;;;;;;;;;;;;;;;;;;5076832;28;19912;-28
2022/04/08 05:26:15;;;;;;;;;;;;;;;;;;5077109;28;19912;-28
2022/04/08 05:28:41;;;;;;;;;;;;;;;;;;5077001;28;19909;-28
2022/04/08 05:31:07;;;;;;;;;;;;;;;;;;5076620;28;19917;-28
2022/04/08 05:33:33;;;;;;;;;;;;;;;;;;5076518;28;19915;-28
2022/04/08 05:35:59;;;;;;;;;;;;;;;;;;5076728;28;20239;-28
2022/04/08 05:38:25;;;;;;;;;;;;;;;;;;5076393;28;19909;-28
2022/04/08 05:40:51;;;;;;;;;;;;;;;;;;5076273;28;19974;-28
2022/04/08 05:43:17;;;;;;;;;;;;;;;;;;5076428;28;20331;-28
2022/04/08 05:45:43;;;;;;;;;;;;;;;;;;5076331;28;19952;-28
2022/04/08 05:48:09;;;;;;;;;;;;;;;;;;5076154;28;20003;-28
2022/04/08 05:50:35;;;;;;;;;;;;;;;;;;5076288;28;19970;-28
2022/04/08 05:53:01;;;;;;;;;;;;;;;;;;5058260;28;19966;-28
2022/04/08 05:55:27;;;;;;;;;;;;;;;;;;5076046;28;19969;-28
2022/04/08 05:57:53;;;;;;;;;;;;;;;;;;5076349;28;19912;-28
2022/04/08 06:00:20;;;;;;;;;;;;;;;;;;5076254;28;19927;-28
2022/04/08 06:02:47;;;;;;;;;;;;;;;;;;5075793;28;19909;-29
2022/04/08 06:05:18;;;;;;;;;;;;;;;;;;5075678;28;19917;-28
2022/04/08 06:07:44;;;;;;;;;;;;;;;;;;5075829;28;19908;-29
2022/04/08 06:10:10;;;;;;;;;;;;;;;;;;5074823;28;20011;-29
2022/04/08 06:12:36;;;;;;;;;;;;;;;;;;5075826;28;19959;-29
2022/04/08 06:15:02;;;;;;;;;;;;;;;;;;5075824;28;19913;-28
2022/04/08 06:17:28;;;;;;;;;;;;;;;;;;5075902;28;19918;-28
2022/04/08 06:19:55;;;;;;;;;;;;;;;;;;5075648;28;19921;-28
2022/04/08 06:22:21;;;;;;;;;;;;;;;;;;5075839;28;19908;-29
2022/04/08 06:24:47;;;;;;;;;;;;;;;;;;5075643;28;20366;-29
2022/04/08 06:27:13;;;;;;;;;;;;;;;;;;5076003;28;19913;-29
2022/04/08 06:29:39;;;;;;;;;;;;;;;;;;5075558;28;20373;-29
2022/04/08 06:32:05;;;;;;;;;;;;;;;;;;5075706;28;19912;-29
2022/04/08 06:34:31;;;;;;;;;;;;;;;;;;5075324;28;19920;-29
2022/04/08 06:36:57;;;;;;;;;;;;;;;;;;5075377;28;20233;-29
2022/04/08 06:39:23;;;;;;;;;;;;;;;;;;5075604;28;19912;-29
2022/04/08 06:41:49;;;;;;;;;;;;;;;;;;5075179;28;19909;-29
2022/04/08 06:44:15;;;;;;;;;;;;;;;;;;5075517;28;20313;-29
2022/04/08 06:46:41;;;;;;;;;;;;;;;;;;5075314;28;19912;-28
2022/04/08 06:49:07;;;;;;;;;;;;;;;;;;5075377;28;20281;-29
2022/04/08 06:51:33;;;;;;;;;;;;;;;;;;5074990;28;19951;-29
2022/04/08 06:53:59;;;;;;;;;;;;;;;;;;5074895;28;19908;-28
2022/04/08 06:56:25;;;;;;;;;;;;;;;;;;5075051;28;19999;-29
2022/04/08 06:58:51;;;;;;;;;;;;;;;;;;5075015;28;19944;-29
2022/04/08 07:01:17;;;;;;;;;;;;;;;;;;5075246;28;19912;-29
2022/04/08 07:03:43;;;;;;;;;;;;;;;;;;5074783;28;19916;-29
2022/04/08 07:06:09;;;;;;;;;;;;;;;;;;5075034;28;19916;-29
2022/04/08 07:08:35;;;;;;;;;;;;;;;;;;5075224;28;19913;-28
2022/04/08 07:11:01;;;;;;;;;;;;;;;;;;5074664;28;19943;-29
2022/04/08 07:13:27;;;;;;;;;;;;;;;;;;5074768;28;19909;-28
2022/04/08 07:15:54;;;;;;;;;;;;;;;;;;5075120;28;20357;-28
2022/04/08 07:18:21;;;;;;;;;;;;;;;;;;5074911;28;20255;-29
2022/04/08 07:20:47;;;;;;;;;;;;;;;;;;5074704;28;20302;-29
2022/04/08 07:23:13;;;;;;;;;;;;;;;;;;5074944;28;19974;-28
2022/04/08 07:25:39;;;;;;;;;;;;;;;;;;5074758;28;19917;-29
2022/04/08 07:28:06;;;;;;;;;;;;;;;;;;5074985;28;19916;-28
2022/04/08 07:30:32;;;;;;;;;;;;;;;;;;5074574;28;19917;-28
2022/04/08 07:33:00;;;;;;;;;;;;;;;;;;5074715;28;19909;-28
2022/04/08 07:35:26;;;;;;;;;;;;;;;;;;5074879;28;20262;-28
2022/04/08 07:37:53;;;;;;;;;;;;;;;;;;5074611;28;19909;-28
2022/04/08 07:40:19;;;;;;;;;;;;;;;;;;5074518;28;19912;-28
2022/04/08 07:42:45;;;;;;;;;;;;;;;;;;5074583;28;19908;-28
2022/04/08 07:45:11;;;;;;;;;;;;;;;;;;5074672;28;19934;-28
2022/04/08 07:47:37;;;;;;;;;;;;;;;;;;5074512;28;20309;-28
2022/04/08 07:50:03;;;;;;;;;;;;;;;;;;5074221;28;20228;-28
2022/04/08 07:52:29;;;;;;;;;;;;;;;;;;5074309;28;19908;-28
2022/04/08 07:54:55;;;;;;;;;;;;;;;;;;5074681;28;20301;-28
2022/04/08 07:57:21;;;;;;;;;;;;;;;;;;5074477;28;19909;-28
2022/04/08 07:59:47;;;;;;;;;;;;;;;;;;5074442;28;19913;-28
2022/04/08 08:02:13;;;;;;;;;;;;;;;;;;5074306;28;20018;-28
2022/04/08 08:04:39;;;;;;;;;;;;;;;;;;5053150;28;19917;-28
2022/04/08 08:07:06;;;;;;;;;;;;;;;;;;5054419;28;20272;-28
2022/04/08 08:09:33;;;;;;;;;;;;;;;;;;5054295;28;19927;-28
2022/04/08 08:11:59;;;;;;;;;;;;;;;;;;5054218;28;19952;-28
2022/04/08 08:14:25;;;;;;;;;;;;;;;;;;5054394;28;19924;-28
2022/04/08 08:16:51;;;;;;;;;;;;;;;;;;5054208;28;19913;-28
2022/04/08 08:19:17;;;;;;;;;;;;;;;;;;5054564;28;19916;-28
2022/04/08 08:21:43;;;;;;;;;;;;;;;;;;5054169;28;19935;-28
2022/04/08 08:24:09;;;;;;;;;;;;;;;;;;5054106;28;19995;-28
2022/04/08 08:26:35;;;;;;;;;;;;;;;;;;5054208;28;19920;-28
2022/04/08 08:29:01;;;;;;;;;;;;;;;;;;5054140;28;19988;-28
2022/04/08 08:31:27;;;;;;;;;;;;;;;;;;5054040;28;20225;-28
2022/04/08 08:33:53;;;;;;;;;;;;;;;;;;5055871;28;19970;-28
2022/04/08 08:36:19;;;;;;;;;;;;;;;;;;5057633;28;20335;-28
2022/04/08 08:38:45;;;;;;;;;;;;;;;;;;5057680;28;20259;-29
2022/04/08 08:41:11;;;;;;;;;;;;;;;;;;5057849;28;19917;-28
2022/04/08 08:43:37;;;;;;;;;;;;;;;;;;5057504;28;19909;-28
2022/04/08 08:46:03;;;;;;;;;;;;;;;;;;5057763;28;20011;-28
2022/04/08 08:48:30;;;;;;;;;;;;;;;;;;5057434;28;20243;-28
2022/04/08 08:50:56;;;;;;;;;;;;;;;;;;5057453;28;20429;-28
2022/04/08 08:53:22;;;;;;;;;;;;;;;;;;5057388;28;19963;-28
2022/04/08 08:55:49;;;;;;;;;;;;;;;;;;5057551;28;19920;-29
2022/04/08 08:58:15;;;;;;;;;;;;;;;;;;5057516;28;19909;-28
2022/04/08 09:00:41;;;;;;;;;;;;;;;;;;5056406;28;19912;-28
2022/04/08 09:03:09;;;;;;;;;;;;;;;;;;5058737;28;19971;-28
2022/04/08 09:05:35;;;;;;;;;;;;;;;;;;5077651;28;19920;-28
2022/04/08 09:08:01;;;;;;;;;;;;;;;;;;5077533;28;19937;-29
2022/04/08 09:10:27;;;;;;;;;;;;;;;;;;5077425;28;19967;-29
2022/04/08 09:12:54;;;;;;;;;;;;;;;;;;5077046;28;19913;-28
2022/04/08 09:15:20;;;;;;;;;;;;;;;;;;5077128;28;19916;-28
2022/04/08 09:17:46;;;;;;;;;;;;;;;;;;5077000;28;19916;-29
2022/04/08 09:20:12;;;;;;;;;;;;;;;;;;5076948;28;20049;-28
2022/04/08 09:22:37;;;;;;;;;;;;;;;;;;5076669;28;19965;-29
2022/04/08 09:25:04;;;;;;;;;;;;;;;;;;5076916;28;20353;-29
2022/04/08 09:27:30;;;;;;;;;;;;;;;;;;5076673;28;19960;-29
2022/04/08 09:29:56;;;;;;;;;;;;;;;;;;5076541;28;19983;-29
2022/04/08 09:32:24;;;;;;;;;;;;;;;;;;5076496;28;19909;-29
2022/04/08 09:34:50;;;;;;;;;;;;;;;;;;5077299;28;19986;-29
2022/04/08 09:37:17;;;;;;;;;;;;;;;;;;5076543;28;19909;-29
2022/04/08 09:39:43;;;;;;;;;;;;;;;;;;5076392;28;19913;-29
2022/04/08 09:42:09;;;;;;;;;;;;;;;;;;5076525;28;19938;-29
2022/04/08 09:44:37;;;;;;;;;;;;;;;;;;5076079;28;19920;-28
2022/04/08 09:47:03;;;;;;;;;;;;;;;;;;5076321;28;19909;-28
2022/04/08 09:49:29;;;;;;;;;;;;;;;;;;5076313;28;20012;-27
2022/04/08 09:51:55;;;;;;;;;;;;;;;;;;5076425;28;19969;-27
2022/04/08 09:54:21;;;;;;;;;;;;;;;;;;5076163;28;19948;-27
2022/04/08 09:56:48;;;;;;;;;;;;;;;;;;5076542;28;19919;-27
2022/04/08 09:59:14;;;;;;;;;;;;;;;;;;5076771;28;19927;-27
2022/04/08 10:01:40;;;;;;;;;;;;;;;;;;5076228;28;19924;-27
2022/04/08 10:04:07;;;;;;;;;;;;;;;;;;5075816;28;19916;-27
2022/04/08 10:06:33;;;;;;;;;;;;;;;;;;5076221;28;19919;-28
2022/04/08 10:08:59;;;;;;;;;;;;;;;;;;5075761;28;19912;-27
2022/04/08 10:11:25;;;;;;;;;;;;;;;;;;5075694;28;19931;-28
2022/04/08 10:13:51;;;;;;;;;;;;;;;;;;5075835;28;20299;-28
2022/04/08 10:16:17;;;;;;;;;;;;;;;;;;5075727;28;19979;-28
2022/04/08 10:18:43;;;;;;;;;;;;;;;;;;5075985;28;19919;-28
2022/04/08 10:21:13;;;;;;;;;;;;;;;;;;5075529;28;20355;-28
2022/04/08 10:23:39;;;;;;;;;;;;;;;;;;5075530;28;20354;-28
2022/04/08 10:26:05;;;;;;;;;;;;;;;;;;5075567;28;20363;-28
2022/04/08 10:28:31;;;;;;;;;;;;;;;;;;5075507;28;20303;-28
2022/04/08 10:30:58;;;;;;;;;;;;;;;;;;5075264;28;20014;-28
2022/04/08 10:33:24;;;;;;;;;;;;;;;;;;5075429;28;19961;-28
2022/04/08 10:35:50;;;;;;;;;;;;;;;;;;5075447;28;20410;-28
2022/04/08 10:38:16;;;;;;;;;;;;;;;;;;5075718;28;20259;-28
2022/04/08 10:40:45;;;;;;;;;;;;;;;;;;5075240;28;19915;-28
2022/04/08 10:43:13;;;;;;;;;;;;;;;;;;5075320;28;19924;-28
2022/04/08 10:45:39;;;;;;;;;;;;;;;;;;5075116;28;19912;-28
2022/04/08 10:48:05;;;;;;;;;;;;;;;;;;5075410;28;19913;-28
2022/04/08 10:50:31;;;;;;;;;;;;;;;;;;5075158;28;20317;-28
2022/04/08 10:52:58;;;;;;;;;;;;;;;;;;5075240;28;19912;-28
2022/04/08 10:55:24;;;;;;;;;;;;;;;;;;5075146;28;19919;-28
2022/04/08 10:57:50;;;;;;;;;;;;;;;;;;5075071;28;19912;-29
2022/04/08 11:00:16;;;;;;;;;;;;;;;;;;5075125;28;20303;-29
2022/04/08 11:02:43;;;;;;;;;;;;;;;;;;5075860;28;20011;-29
2022/04/08 11:05:09;;;;;;;;;;;;;;;;;;5074862;28;20285;-29
2022/04/08 11:07:35;;;;;;;;;;;;;;;;;;5075015;28;19912;-29
2022/04/08 11:10:01;;;;;;;;;;;;;;;;;;5074871;28;19916;-28
2022/04/08 11:12:29;;;;;;;;;;;;;;;;;;5075081;28;19919;-28
2022/04/08 11:14:57;;;;;;;;;;;;;;;;;;5074852;28;19908;-28
2022/04/08 11:17:23;;;;;;;;;;;;;;;;;;5075183;28;19973;-29
2022/04/08 11:19:49;;;;;;;;;;;;;;;;;;5075170;28;20405;-28
2022/04/08 11:22:15;;;;;;;;;;;;;;;;;;5074762;28;19960;-28
2022/04/08 11:24:41;;;;;;;;;;;;;;;;;;5074698;28;20351;-28
2022/04/08 11:27:08;;;;;;;;;;;;;;;;;;5075397;28;19918;-28
2022/04/08 11:29:35;;;;;;;;;;;;;;;;;;5075106;28;20004;-28
2022/04/08 11:32:01;;;;;;;;;;;;;;;;;;5074697;28;19912;-28
2022/04/08 11:34:27;;;;;;;;;;;;;;;;;;5075067;28;20011;-28
2022/04/08 11:36:57;;;;;;;;;;;;;;;;;;5074699;28;19913;-28
2022/04/08 11:39:23;;;;;;;;;;;;;;;;;;5074749;28;19915;-28
2022/04/08 11:41:49;;;;;;;;;;;;;;;;;;5074875;28;19921;-28
2022/04/08 11:44:15;;;;;;;;;;;;;;;;;;5074693;28;20354;-28
2022/04/08 11:46:41;;;;;;;;;;;;;;;;;;5074896;28;19955;-28
2022/04/08 11:49:07;;;;;;;;;;;;;;;;;;5074578;28;19962;-28
2022/04/08 11:51:33;;;;;;;;;;;;;;;;;;5074365;28;19959;-28
2022/04/08 11:53:59;;;;;;;;;;;;;;;;;;5074411;28;19946;-28
2022/04/08 11:56:25;;;;;;;;;;;;;;;;;;5074564;28;19995;-28
2022/04/08 11:58:51;;;;;;;;;;;;;;;;;;5074961;28;19915;-29
2022/04/08 12:01:17;;;;;;;;;;;;;;;;;;5074625;28;19912;-28
2022/04/08 12:03:43;;;;;;;;;;;;;;;;;;5074338;28;19939;-28
2022/04/08 12:06:09;;;;;;;;;;;;;;;;;;5074447;28;19974;-28
2022/04/08 12:08:35;;;;;;;;;;;;;;;;;;5075551;28;20232;-28
2022/04/08 12:11:02;;;;;;;;;;;;;;;;;;5077944;28;19925;-28
2022/04/08 12:13:29;;;;;;;;;;;;;;;;;;5060522;28;19912;-28
2022/04/08 12:15:55;;;;;;;;;;;;;;;;;;5078023;28;20327;-28
2022/04/08 12:18:21;;;;;;;;;;;;;;;;;;5078131;28;19914;-28
2022/04/08 12:20:47;;;;;;;;;;;;;;;;;;5077883;28;19913;-28
2022/04/08 12:23:13;;;;;;;;;;;;;;;;;;5077904;28;19909;-28
2022/04/08 12:25:39;;;;;;;;;;;;;;;;;;5077825;28;20014;-28
2022/04/08 12:28:05;;;;;;;;;;;;;;;;;;5077806;28;19916;-28
2022/04/08 12:30:33;;;;;;;;;;;;;;;;;;5077700;28;19919;-28
2022/04/08 12:32:59;;;;;;;;;;;;;;;;;;5077568;28;20351;-28
2022/04/08 12:35:25;;;;;;;;;;;;;;;;;;5077602;28;19919;-28
2022/04/08 12:37:51;;;;;;;;;;;;;;;;;;5077901;28;19913;-28
2022/04/08 12:40:17;;;;;;;;;;;;;;;;;;5077547;28;19936;-28
2022/04/08 12:42:43;;;;;;;;;;;;;;;;;;5077484;28;20339;-28
2022/04/08 12:45:09;;;;;;;;;;;;;;;;;;5078159;28;19912;-28
2022/04/08 12:47:35;;;;;;;;;;;;;;;;;;5077723;28;19971;-28
2022/04/08 12:50:01;;;;;;;;;;;;;;;;;;5077619;28;19973;-29
2022/04/08 12:52:27;;;;;;;;;;;;;;;;;;5077538;28;20011;-28
2022/04/08 12:54:54;;;;;;;;;;;;;;;;;;5077364;28;19924;-28
2022/04/08 12:57:20;;;;;;;;;;;;;;;;;;5077542;28;19917;-28
2022/04/08 12:59:47;;;;;;;;;;;;;;;;;;5077586;28;19999;-28
2022/04/08 13:02:13;;;;;;;;;;;;;;;;;;5077425;28;19978;-28
2022/04/08 13:04:39;;;;;;;;;;;;;;;;;;5077095;28;20252;-28
2022/04/08 13:07:07;;;;;;;;;;;;;;;;;;5077085;28;19924;-28
2022/04/08 13:09:33;;;;;;;;;;;;;;;;;;5076984;28;19967;-28
2022/04/08 13:11:59;;;;;;;;;;;;;;;;;;5077151;28;20299;-28
2022/04/08 13:14:25;;;;;;;;;;;;;;;;;;5076945;28;20020;-28
2022/04/08 13:16:51;;;;;;;;;;;;;;;;;;5077087;28;19909;-28
2022/04/08 13:19:17;;;;;;;;;;;;;;;;;;5076403;28;19919;-28
2022/04/08 13:21:43;;;;;;;;;;;;;;;;;;5076834;28;19962;-28
2022/04/08 13:24:09;;;;;;;;;;;;;;;;;;5059386;28;20077;-28
2022/04/08 13:26:35;;;;;;;;;;;;;;;;;;5076906;28;20008;-28
2022/04/08 13:29:02;;;;;;;;;;;;;;;;;;5077437;28;19923;-28
2022/04/08 13:31:28;;;;;;;;;;;;;;;;;;5076721;28;20015;-28
2022/04/08 13:33:53;;;;;;;;;;;;;;;;;;5076589;28;19952;-28
2022/04/08 13:36:19;;;;;;;;;;;;;;;;;;5076934;28;20339;-28
2022/04/08 13:38:46;;;;;;;;;;;;;;;;;;5076626;28;19969;-28
2022/04/08 13:41:12;;;;;;;;;;;;;;;;;;5076583;28;19912;-28
2022/04/08 13:43:38;;;;;;;;;;;;;;;;;;5076713;28;19935;-28
2022/04/08 13:46:04;;;;;;;;;;;;;;;;;;5076516;28;19913;-28
2022/04/08 13:48:30;;;;;;;;;;;;;;;;;;5076488;28;19920;-28
2022/04/08 13:50:56;;;;;;;;;;;;;;;;;;5076276;28;20010;-29
2022/04/08 13:53:22;;;;;;;;;;;;;;;;;;5076243;28;19913;-29
2022/04/08 13:55:48;;;;;;;;;;;;;;;;;;5058674;28;19974;-29
2022/04/08 13:58:14;;;;;;;;;;;;;;;;;;5076291;28;20343;-29
2022/04/08 14:00:40;;;;;;;;;;;;;;;;;;5076186;28;19920;-28
2022/04/08 14:03:06;;;;;;;;;;;;;;;;;;5076333;28;19912;-29
2022/04/08 14:05:33;;;;;;;;;;;;;;;;;;5076452;28;19908;-29
2022/04/08 14:07:59;;;;;;;;;;;;;;;;;;5076025;28;19912;-28
2022/04/08 14:10:24;;;;;;;;;;;;;;;;;;5075943;28;19928;-28
2022/04/08 14:12:51;;;;;;;;;;;;;;;;;;5075829;28;20351;-29
2022/04/08 14:15:17;;;;;;;;;;;;;;;;;;5075956;28;19920;-29
2022/04/08 14:17:43;;;;;;;;;;;;;;;;;;5076186;28;19908;-28
2022/04/08 14:20:08;;;;;;;;;;;;;;;;;;5076103;28;20370;-28
2022/04/08 14:22:34;;;;;;;;;;;;;;;;;;5075713;28;19908;-28
2022/04/08 14:25:01;;;;;;;;;;;;;;;;;;5075613;28;19913;-28
2022/04/08 14:27:27;;;;;;;;;;;;;;;;;;5075673;28;19938;-28
2022/04/08 14:29:53;;;;;;;;;;;;;;;;;;5075514;28;20355;-28
2022/04/08 14:32:20;;;;;;;;;;;;;;;;;;5075038;28;19967;-28
2022/04/08 14:34:46;;;;;;;;;;;;;;;;;;5075525;28;19913;-28
2022/04/08 14:37:12;;;;;;;;;;;;;;;;;;5075551;28;19919;-29
2022/04/08 14:39:38;;;;;;;;;;;;;;;;;;5076047;28;20388;-28
2022/04/08 14:42:04;;;;;;;;;;;;;;;;;;5075676;28;19923;-29
2022/04/08 14:44:30;;;;;;;;;;;;;;;;;;5075289;28;19969;-28
2022/04/08 14:46:56;;;;;;;;;;;;;;;;;;5075307;28;20359;-28
2022/04/08 14:49:22;;;;;;;;;;;;;;;;;;5075471;28;19969;-28
2022/04/08 14:51:48;;;;;;;;;;;;;;;;;;5075264;28;19919;-29
2022/04/08 14:54:14;;;;;;;;;;;;;;;;;;5075523;28;19913;-29
2022/04/08 14:56:39;;;;;;;;;;;;;;;;;;5075602;28;19912;-29
2022/04/08 14:59:05;;;;;;;;;;;;;;;;;;5075459;28;20317;-29
2022/04/08 15:01:31;;;;;;;;;;;;;;;;;;5075210;28;19965;-29
2022/04/08 15:03:57;;;;;;;;;;;;;;;;;;5074890;28;20000;-28
2022/04/08 15:06:23;;;;;;;;;;;;;;;;;;5075297;28;20254;-28
2022/04/08 15:08:49;;;;;;;;;;;;;;;;;;5075119;28;20007;-29
2022/04/08 15:11:15;;;;;;;;;;;;;;;;;;5058136;28;19931;-29
2022/04/08 15:13:41;;;;;;;;;;;;;;;;;;5075094;28;20392;-28
2022/04/08 15:16:07;;;;;;;;;;;;;;;;;;5075572;28;19912;-29
2022/04/08 15:18:33;;;;;;;;;;;;;;;;;;5075032;28;19913;-28
2022/04/08 15:20:59;;;;;;;;;;;;;;;;;;5075215;28;19908;-28
2022/04/08 15:23:25;;;;;;;;;;;;;;;;;;5074861;28;19919;-28
2022/04/08 15:25:52;;;;;;;;;;;;;;;;;;5075106;28;20250;-29
2022/04/08 15:28:18;;;;;;;;;;;;;;;;;;5075211;28;19917;-28
2022/04/08 15:30:44;;;;;;;;;;;;;;;;;;5075181;28;19912;-28
2022/04/08 15:33:10;;;;;;;;;;;;;;;;;;5075116;28;19935;-29
2022/04/08 15:35:37;;;;;;;;;;;;;;;;;;5074840;28;19969;-28
2022/04/08 15:38:03;;;;;;;;;;;;;;;;;;5074638;28;19923;-28
2022/04/08 15:40:30;;;;;;;;;;;;;;;;;;5074751;28;19939;-29
2022/04/08 15:42:56;;;;;;;;;;;;;;;;;;5076596;28;19913;-29
2022/04/08 15:45:22;;;;;;;;;;;;;;;;;;5079260;28;19913;-29
2022/04/08 15:47:48;;;;;;;;;;;;;;;;;;5078744;28;19969;-29
2022/04/08 15:50:14;;;;;;;;;;;;;;;;;;5078908;28;19974;-28
2022/04/08 15:52:40;;;;;;;;;;;;;;;;;;5078635;28;20335;-28
2022/04/08 15:55:06;;;;;;;;;;;;;;;;;;5078655;28;19919;-28
2022/04/08 15:57:32;;;;;;;;;;;;;;;;;;5078536;28;19912;-28
2022/04/08 15:59:58;;;;;;;;;;;;;;;;;;5078778;28;19912;-28
2022/04/08 16:02:24;;;;;;;;;;;;;;;;;;5078531;28;19913;-28
2022/04/08 16:04:50;;;;;;;;;;;;;;;;;;5078248;28;19920;-28
2022/04/08 16:07:16;;;;;;;;;;;;;;;;;;5078340;28;20309;-28
2022/04/08 16:09:42;;;;;;;;;;;;;;;;;;5078212;28;19912;-28
2022/04/08 16:12:08;;;;;;;;;;;;;;;;;;5078087;28;19995;-28
2022/04/08 16:14:34;;;;;;;;;;;;;;;;;;5078172;28;20355;-28
2022/04/08 16:17:00;;;;;;;;;;;;;;;;;;5078165;28;19922;-28
2022/04/08 16:19:26;;;;;;;;;;;;;;;;;;5078394;28;19919;-28
2022/04/08 16:21:53;;;;;;;;;;;;;;;;;;5077967;28;20258;-28
2022/04/08 16:24:19;;;;;;;;;;;;;;;;;;5077938;28;20307;-28
2022/04/08 16:26:46;;;;;;;;;;;;;;;;;;5077947;28;20259;-28
2022/04/08 16:29:12;;;;;;;;;;;;;;;;;;5078200;28;20282;-28
2022/04/08 16:31:38;;;;;;;;;;;;;;;;;;5077726;28;19916;-28
2022/04/08 16:34:04;;;;;;;;;;;;;;;;;;5077935;28;19908;-28
2022/04/08 16:36:31;;;;;;;;;;;;;;;;;;5077790;28;19912;-28
2022/04/08 16:38:56;;;;;;;;;;;;;;;;;;5077735;28;19920;-28